Time;durP1;ratioP1;P1;durP2;ratioP2;P2;SDS_P1;SDS_P2;PMS_P1;PMS_P2;Temp;Humidity;BMP_temperature;BMP_pressure;BME280_temperature;BME280_humidity;BME280_pressure;Samples;Min_cycle;Max_cycle;Signal;HPM_P1;HPM_P2
2023/01/27 00:01:18;;;;;;;0.60;0.60;;;;;;;2.32;100.00;98696.91;5053029;28;20283;-61
2023/01/27 00:03:45;;;;;;;0.70;0.70;;;;;;;2.25;100.00;98687.69;5050601;28;20228;-61
2023/01/27 00:06:11;;;;;;;0.60;0.60;;;;;;;2.38;100.00;98701.91;5052660;28;20193;-61
2023/01/27 00:08:38;;;;;;;0.70;0.70;;;;;;;2.40;100.00;98700.19;5052860;28;20684;-61
2023/01/27 00:13:50;;;;;;;0.60;0.60;;;;;;;2.45;100.00;98722.06;5052786;28;20199;-61
2023/01/27 00:16:17;;;;;;;0.60;0.60;;;;;;;2.36;100.00;98716.25;5052949;28;20204;-61
2023/01/27 00:18:44;;;;;;;0.60;0.60;;;;;;;2.39;100.00;98728.88;5049663;28;20197;-62
2023/01/27 00:26:40;;;;;;;0.60;0.60;;;;;;;2.38;100.00;98696.84;5053059;28;20200;-61
2023/01/27 00:29:07;;;;;;;0.60;0.60;;;;;;;2.39;100.00;98703.59;5051463;28;20577;-62
2023/01/27 00:34:18;;;;;;;0.60;0.60;;;;;;;2.34;100.00;98688.44;5052595;28;20203;-61
2023/01/27 00:36:44;;;;;;;0.60;0.60;;;;;;;2.37;100.00;98679.97;5052694;28;20713;-61
2023/01/27 00:39:12;;;;;;;0.60;0.60;;;;;;;2.39;100.00;98679.09;5050852;28;20204;-61
2023/01/27 00:41:40;;;;;;;0.60;0.60;;;;;;;2.40;100.00;98679.94;5052322;28;20665;-61
2023/01/27 00:44:11;;;;;;;0.60;0.60;;;;;;;2.44;100.00;98679.06;5052125;28;20707;-61
2023/01/27 00:46:38;;;;;;;0.60;0.60;;;;;;;2.49;100.00;98684.91;5052471;28;20196;-61
2023/01/27 00:49:05;;;;;;;0.60;0.60;;;;;;;2.46;100.00;98695.91;5052064;28;20251;-61
2023/01/27 00:51:32;;;;;;;0.80;0.80;;;;;;;2.43;100.00;98695.09;5051579;28;20217;-61
2023/01/27 00:54:01;;;;;;;0.70;0.70;;;;;;;2.35;100.00;98676.63;5052074;28;20288;-61
2023/01/27 00:56:28;;;;;;;0.50;0.50;;;;;;;2.39;100.00;98688.41;5052147;28;20193;-61
2023/01/27 00:58:56;;;;;;;0.60;0.60;;;;;;;2.42;100.00;98679.09;5052081;28;20279;-61
2023/01/27 01:01:23;;;;;;;0.80;0.80;;;;;;;2.43;100.00;98674.84;5049204;28;20195;-61
2023/01/27 01:03:50;;;;;;;0.77;0.77;;;;;;;2.48;100.00;98668.09;5051511;28;20228;-61
2023/01/27 01:06:17;;;;;;;0.60;0.60;;;;;;;2.47;100.00;98651.22;5051648;28;20205;-61
2023/01/27 01:08:44;;;;;;;0.60;0.60;;;;;;;2.45;100.00;98646.19;5051757;28;20197;-61
2023/01/27 01:11:13;;;;;;;0.50;0.50;;;;;;;2.45;100.00;98637.75;5051785;28;20213;-61
2023/01/27 01:13:41;;;;;;;0.53;0.53;;;;;;;2.24;100.00;98608.44;5050853;28;20569;-61
2023/01/27 01:16:11;;;;;;;0.50;0.50;;;;;;;2.37;100.00;98609.16;5050573;28;20580;-61
2023/01/27 01:18:38;;;;;;;0.50;0.50;;;;;;;2.30;100.00;98584.78;5051379;28;20258;-61
2023/01/27 01:21:06;;;;;;;0.60;0.60;;;;;;;2.38;100.00;98610.84;5051710;28;20665;-61
2023/01/27 01:23:33;;;;;;;0.60;0.60;;;;;;;2.36;100.00;98647.97;5051586;28;20201;-61
2023/01/27 01:26:00;;;;;;;0.60;0.60;;;;;;;2.28;100.00;98669.94;5051143;28;20212;-61
2023/01/27 01:28:27;;;;;;;0.60;0.60;;;;;;;2.23;100.00;98666.63;5049084;28;20212;-61
2023/01/27 01:30:53;;;;;;;0.50;0.50;;;;;;;2.17;100.00;98681.81;5051226;28;20688;-61
2023/01/27 01:33:22;;;;;;;0.60;0.60;;;;;;;2.18;100.00;98678.47;5051244;28;20676;-61
2023/01/27 01:35:49;;;;;;;0.67;0.67;;;;;;;2.19;100.00;98659.91;5049244;28;20201;-61
2023/01/27 01:38:15;;;;;;;0.70;0.70;;;;;;;2.22;100.00;98650.63;5050823;28;20197;-62
2023/01/27 01:40:43;;;;;;;0.57;0.57;;;;;;;2.22;100.00;98644.72;5051213;28;20699;-64
2023/01/27 01:43:14;;;;;;;0.60;0.60;;;;;;;2.28;100.00;98637.06;5051074;28;20204;-65
2023/01/27 01:45:48;;;;;;;0.60;0.60;;;;;;;2.35;100.00;98623.53;5050924;28;20266;-64
2023/01/27 01:48:21;;;;;;;0.50;0.50;;;;;;;2.44;100.00;98629.34;5050935;28;20197;-65
2023/01/27 01:50:53;;;;;;;0.70;0.70;;;;;;;2.36;100.00;98637.84;5044191;28;20217;-65
2023/01/27 01:53:21;;;;;;;0.70;0.70;;;;;;;2.37;100.00;98626.88;5049781;28;20197;-65
2023/01/27 01:55:49;;;;;;;1.27;0.90;;;;;;;2.39;100.00;98630.25;5050811;28;20200;-64
2023/01/27 01:58:16;;;;;;;0.60;0.60;;;;;;;2.41;100.00;98614.19;5050634;28;20205;-65
2023/01/27 02:00:43;;;;;;;0.70;0.70;;;;;;;2.46;100.00;98609.06;5050865;28;20550;-65
2023/01/27 02:03:10;;;;;;;0.60;0.60;;;;;;;2.42;100.00;98602.38;5049156;28;20232;-65
2023/01/27 02:05:44;;;;;;;0.60;0.60;;;;;;;2.46;100.00;98609.91;5051072;28;20549;-65
2023/01/27 02:08:16;;;;;;;0.50;0.50;;;;;;;2.44;100.00;98610.78;5050810;28;20643;-65
2023/01/27 02:10:43;;;;;;;0.60;0.60;;;;;;;2.38;100.00;98600.72;5050357;28;20220;-65
2023/01/27 02:13:10;;;;;;;0.50;0.50;;;;;;;2.28;100.00;98606.72;5050199;28;20197;-64
2023/01/27 02:15:37;;;;;;;0.50;0.50;;;;;;;2.23;100.00;98611.00;5050713;28;20205;-64
2023/01/27 02:18:06;;;;;;;0.67;0.67;;;;;;;2.21;100.00;98603.44;5050282;28;20201;-64
2023/01/27 02:20:39;;;;;;;0.50;0.50;;;;;;;2.22;100.00;98587.41;5047327;28;20201;-64
2023/01/27 02:23:19;;;;;;;0.60;0.60;;;;;;;2.26;100.00;98583.16;5050261;28;20196;-65
2023/01/27 02:25:53;;;;;;;0.60;0.60;;;;;;;2.27;100.00;98572.19;5048175;28;20200;-65
2023/01/27 02:28:19;;;;;;;0.70;0.70;;;;;;;2.28;100.00;98554.47;5050548;28;20227;-65
2023/01/27 02:30:46;;;;;;;0.53;0.53;;;;;;;2.32;100.00;98542.63;5047362;28;20216;-65
2023/01/27 02:33:14;;;;;;;0.53;0.53;;;;;;;2.33;100.00;98536.72;5050532;28;20554;-65
2023/01/27 02:35:48;;;;;;;0.53;0.53;;;;;;;2.38;100.00;98540.88;5049313;28;20661;-65
2023/01/27 02:38:17;;;;;;;0.60;0.60;;;;;;;2.40;100.00;98541.69;5050385;28;20208;-65
2023/01/27 02:40:46;;;;;;;0.60;0.60;;;;;;;2.43;100.00;98558.50;5050229;28;20188;-64
2023/01/27 02:43:14;;;;;;;0.50;0.50;;;;;;;2.40;100.00;98573.72;5050048;28;20203;-64
2023/01/27 02:45:41;;;;;;;0.60;0.60;;;;;;;2.38;100.00;98575.44;5049497;28;20200;-65
2023/01/27 02:48:07;;;;;;;2.10;2.10;;;;;;;2.38;100.00;98573.75;5050135;28;20595;-64
2023/01/27 02:50:34;;;;;;;0.60;0.60;;;;;;;2.39;100.00;98556.91;5050015;28;20220;-65
2023/01/27 02:53:01;;;;;;;1.00;1.00;;;;;;;2.40;100.00;98553.50;5045730;28;20271;-64
2023/01/27 02:55:28;;;;;;;0.60;0.60;;;;;;;2.43;100.00;98549.25;5049849;28;20200;-65
2023/01/27 02:57:54;;;;;;;0.70;0.70;;;;;;;2.46;100.00;98553.41;5048062;28;20570;-65
2023/01/27 03:00:23;;;;;;;0.60;0.60;;;;;;;2.45;100.00;98559.34;5050297;28;20200;-65
2023/01/27 03:02:49;;;;;;;0.70;0.70;;;;;;;2.49;100.00;98554.22;5049916;28;20670;-65
2023/01/27 03:05:16;;;;;;;0.60;0.60;;;;;;;2.48;100.00;98541.63;5049088;28;20269;-65
2023/01/27 03:07:43;;;;;;;0.50;0.50;;;;;;;2.52;100.00;98544.06;5049801;28;20212;-65
2023/01/27 03:10:10;;;;;;;0.50;0.50;;;;;;;2.57;100.00;98552.47;5048141;28;20665;-65
2023/01/27 03:12:37;;;;;;;0.60;0.60;;;;;;;2.56;100.00;98544.88;5048682;28;20534;-65
2023/01/27 03:20:34;;;;;;;0.60;0.60;;;;;;;2.57;100.00;98522.09;5049821;28;20196;-65
2023/01/27 03:23:01;;;;;;;0.60;0.60;;;;;;;2.56;100.00;98529.69;5048376;28;20197;-65
2023/01/27 03:25:28;;;;;;;0.60;0.60;;;;;;;2.41;100.00;98515.56;5049452;28;20221;-65
2023/01/27 03:27:56;;;;;;;0.60;0.60;;;;;;;2.55;100.00;98544.03;5049590;28;20201;-65
2023/01/27 03:30:22;;;;;;;0.50;0.50;;;;;;;2.54;100.00;98551.66;5048979;28;20262;-65
2023/01/27 03:32:50;;;;;;;0.50;0.50;;;;;;;2.57;100.00;98561.72;5052835;28;20687;-65
2023/01/27 03:35:18;;;;;;;0.50;0.50;;;;;;;2.54;100.00;98556.72;5053558;28;20201;-65
2023/01/27 03:46:21;;;;;;;0.60;0.60;;;;;;;2.55;100.00;98545.75;5053526;28;20203;-65
2023/01/27 03:48:53;;;;;;;0.50;0.50;;;;;;;2.47;100.00;98539.94;5053318;28;20193;-65
2023/01/27 03:51:22;;;;;;;0.90;0.90;;;;;;;2.56;100.00;98550.78;5053213;28;20223;-65
2023/01/27 03:53:50;;;;;;;0.50;0.50;;;;;;;2.59;100.00;98549.91;5053420;28;20246;-65
2023/01/27 03:56:18;;;;;;;0.70;0.70;;;;;;;2.63;100.00;98551.53;5052915;28;20220;-65
2023/01/27 03:58:45;;;;;;;0.70;0.70;;;;;;;2.63;100.00;98551.53;5053145;28;20719;-65
2023/01/27 04:01:17;;;;;;;0.60;0.60;;;;;;;2.62;100.00;98544.78;5053072;28;20200;-65
2023/01/27 04:09:21;;;;;;;0.50;0.50;;;;;;;2.71;100.00;98549.78;5052995;28;20200;-65
2023/01/27 04:11:58;;;;;;;0.50;0.50;;;;;;;2.78;100.00;98545.47;5052757;28;20574;-65
2023/01/27 04:14:27;;;;;;;0.63;0.63;;;;;;;2.73;100.00;98515.16;5052019;28;20649;-65
2023/01/27 04:16:56;;;;;;;0.50;0.50;;;;;;;2.87;100.00;98520.88;5052927;28;20564;-65
2023/01/27 04:19:23;;;;;;;0.50;0.50;;;;;;;2.86;100.00;98524.25;5053152;28;20197;-66
2023/01/27 04:21:51;;;;;;;0.80;0.80;;;;;;;2.85;100.00;98517.50;5053039;28;20600;-65
2023/01/27 04:24:22;;;;;;;0.50;0.50;;;;;;;2.91;100.00;98521.69;5051647;28;20205;-64
2023/01/27 04:26:52;;;;;;;0.50;0.50;;;;;;;2.94;100.00;98522.44;5052428;28;20207;-65
2023/01/27 04:29:18;;;;;;;0.50;0.50;;;;;;;2.97;100.00;98517.34;5052413;28;20732;-65
2023/01/27 04:31:45;;;;;;;0.50;0.50;;;;;;;2.95;100.00;98519.06;5052821;28;20217;-65
2023/01/27 04:34:12;;;;;;;0.50;0.50;;;;;;;2.92;100.00;98514.03;5047986;28;20197;-65
2023/01/27 04:36:40;;;;;;;0.50;0.50;;;;;;;2.90;100.00;98514.94;5050346;28;20212;-65
2023/01/27 04:39:09;;;;;;;0.63;0.63;;;;;;;2.83;100.00;98506.59;5052241;28;20200;-65
2023/01/27 04:41:36;;;;;;;0.50;0.50;;;;;;;2.77;100.00;98504.13;5052274;28;20569;-65
2023/01/27 04:44:04;;;;;;;0.50;0.50;;;;;;;2.72;100.00;98495.75;5051971;28;20246;-66
2023/01/27 04:46:31;;;;;;;0.67;0.67;;;;;;;2.71;100.00;98494.09;5050709;28;20610;-65
2023/01/27 04:48:58;;;;;;;0.50;0.50;;;;;;;2.71;100.00;98500.84;5050920;28;20200;-65
2023/01/27 04:51:25;;;;;;;0.53;0.53;;;;;;;2.70;100.00;98506.75;5051528;28;20278;-64
2023/01/27 04:53:51;;;;;;;0.63;0.63;;;;;;;2.75;100.00;98510.91;5046394;28;20197;-65
2023/01/27 04:56:25;;;;;;;0.50;0.50;;;;;;;2.78;100.00;98515.91;5051804;28;20279;-65
2023/01/27 04:58:52;;;;;;;0.57;0.57;;;;;;;2.82;100.00;98517.56;5050303;28;20208;-65
2023/01/27 05:01:19;;;;;;;0.50;0.50;;;;;;;2.85;100.00;98517.50;5048594;28;20205;-65
2023/01/27 05:03:46;;;;;;;0.50;0.50;;;;;;;2.87;100.00;98513.28;5047318;28;20231;-66
2023/01/27 05:06:14;;;;;;;0.50;0.50;;;;;;;2.91;100.00;98506.50;5042844;28;20197;-66
2023/01/27 05:08:41;;;;;;;0.50;0.50;;;;;;;2.82;100.00;98481.28;5046536;28;20214;-65
2023/01/27 05:11:07;;;;;;;0.67;0.67;;;;;;;2.93;100.00;98505.59;5047552;28;20228;-66
2023/01/27 05:13:35;;;;;;;0.50;0.50;;;;;;;2.98;100.00;98503.81;5045063;28;20208;-66
2023/01/27 05:16:11;;;;;;;0.50;0.50;;;;;;;2.99;100.00;98525.75;5051547;28;20263;-66
2023/01/27 05:18:39;;;;;;;0.60;0.60;;;;;;;3.03;100.00;98522.34;5051344;28;20196;-66
2023/01/27 05:21:07;;;;;;;0.60;0.60;;;;;;;3.02;100.00;98529.94;5051188;28;20627;-66
2023/01/27 05:23:37;;;;;;;0.50;0.50;;;;;;;2.82;100.00;98502.38;5051362;28;20201;-66
2023/01/27 05:26:09;;;;;;;0.60;0.60;;;;;;;3.00;100.00;98547.69;5050533;28;20197;-66
2023/01/27 05:28:39;;;;;;;0.60;0.60;;;;;;;2.97;100.00;98547.72;5051544;28;20201;-66
2023/01/27 05:31:08;;;;;;;0.50;0.50;;;;;;;2.91;100.00;98547.00;5051183;28;20224;-66
2023/01/27 05:33:35;;;;;;;0.70;0.70;;;;;;;2.88;100.00;98542.78;5049882;28;20192;-66
2023/01/27 05:36:04;;;;;;;0.50;0.50;;;;;;;2.93;100.00;98548.63;5050859;28;20196;-66
2023/01/27 05:38:31;;;;;;;0.60;0.60;;;;;;;2.95;100.00;98544.38;5050384;28;20202;-66
2023/01/27 05:41:00;;;;;;;0.67;0.67;;;;;;;2.97;100.00;98542.66;5051421;28;20585;-66
2023/01/27 05:43:28;;;;;;;0.63;0.63;;;;;;;2.97;100.00;98542.66;5051038;28;20235;-66
2023/01/27 05:46:04;;;;;;;0.50;0.50;;;;;;;2.98;100.00;98539.28;5051145;28;20197;-65
2023/01/27 05:48:31;;;;;;;0.50;0.50;;;;;;;3.00;100.00;98547.69;5050983;28;20203;-66
2023/01/27 05:50:59;;;;;;;1.13;1.13;;;;;;;3.03;100.00;98547.66;5049372;28;20201;-66
2023/01/27 05:53:26;;;;;;;0.77;0.77;;;;;;;2.95;100.00;98533.41;5050676;28;20208;-66
2023/01/27 05:55:53;;;;;;;0.50;0.50;;;;;;;3.04;100.00;98551.84;5049488;28;20201;-66
2023/01/27 05:58:20;;;;;;;0.63;0.63;;;;;;;3.06;100.00;98552.66;5050560;28;20205;-66
2023/01/27 06:00:47;;;;;;;0.60;0.60;;;;;;;3.10;100.00;98548.41;5050799;28;20197;-66
2023/01/27 06:03:16;;;;;;;0.50;0.50;;;;;;;3.14;100.00;98544.94;5049869;28;20216;-66
2023/01/27 06:05:53;;;;;;;0.60;0.60;;;;;;;3.21;100.00;98543.16;5049418;28;20193;-66
2023/01/27 06:08:20;;;;;;;0.73;0.73;;;;;;;3.12;100.00;98521.34;5049689;28;20572;-66
2023/01/27 06:10:47;;;;;;;0.93;0.93;;;;;;;3.25;100.00;98539.75;5044044;28;20197;-66
2023/01/27 06:13:14;;;;;;;0.50;0.50;;;;;;;3.20;100.00;98518.72;5041284;28;20594;-66
2023/01/27 06:15:42;;;;;;;0.60;0.60;;;;;;;3.31;100.00;98532.03;5046421;28;20207;-66
2023/01/27 06:18:09;;;;;;;0.70;0.70;;;;;;;3.28;100.00;98522.81;5044967;28;20608;-66
2023/01/27 06:20:38;;;;;;;0.77;0.77;;;;;;;3.28;100.00;98517.75;5044453;28;20209;-66
2023/01/27 06:23:05;;;;;;;0.60;0.60;;;;;;;3.30;100.00;98522.75;5047604;28;20631;-66
2023/01/27 06:25:37;;;;;;;0.50;0.50;;;;;;;3.32;100.00;98516.84;5047942;28;20684;-66
2023/01/27 06:28:04;;;;;;;0.50;0.50;;;;;;;3.33;100.00;98521.03;5047745;28;20200;-66
2023/01/27 06:30:30;;;;;;;0.50;0.50;;;;;;;3.35;100.00;98533.69;5041804;28;20209;-66
2023/01/27 06:32:57;;;;;;;0.50;0.50;;;;;;;3.35;100.00;98533.69;5048802;28;20220;-66
2023/01/27 06:35:24;;;;;;;1.37;1.37;;;;;;;3.33;100.00;98540.47;5040822;28;20220;-65
2023/01/27 06:37:52;;;;;;;0.60;0.60;;;;;;;3.29;100.00;98549.81;5045457;28;20255;-63
2023/01/27 06:40:19;;;;;;;0.60;0.60;;;;;;;3.28;100.00;98552.34;5043730;28;20216;-63
2023/01/27 06:42:46;;;;;;;0.60;0.60;;;;;;;3.29;100.00;98548.97;5046322;28;20201;-63
2023/01/27 06:45:13;;;;;;;0.53;0.53;;;;;;;3.26;100.00;98546.50;5049191;28;20271;-64
2023/01/27 06:47:40;;;;;;;0.50;0.50;;;;;;;3.28;100.00;98549.81;5047675;28;20197;-66
2023/01/27 06:50:08;;;;;;;0.60;0.60;;;;;;;3.28;100.00;98549.81;5046962;28;20250;-70
2023/01/27 06:52:34;;;;;;;0.70;0.70;;;;;;;3.29;100.00;98548.97;5045366;28;20225;-66
2023/01/27 06:55:04;;;;;;;0.50;0.50;;;;;;;3.26;100.00;98543.97;5049235;28;20205;-66
2023/01/27 06:57:31;;;;;;;0.60;0.60;;;;;;;3.22;100.00;98543.16;5049428;28;20203;-66
2023/01/27 06:59:58;;;;;;;0.50;0.50;;;;;;;3.21;100.00;98531.34;5044017;28;20204;-66
2023/01/27 07:02:24;;;;;;;0.50;0.50;;;;;;;3.22;100.00;98537.25;5046263;28;20212;-65
2023/01/27 07:04:51;;;;;;;0.67;0.67;;;;;;;3.18;100.00;98534.78;5044405;28;20208;-64
2023/01/27 07:07:18;;;;;;;0.50;0.50;;;;;;;3.15;100.00;98539.88;5051272;28;20300;-65
2023/01/27 07:09:45;;;;;;;0.60;0.60;;;;;;;3.14;100.00;98534.81;5051295;28;20216;-65
2023/01/27 07:12:13;;;;;;;0.70;0.70;;;;;;;3.13;100.00;98544.09;5050574;28;20229;-64
2023/01/27 07:14:40;;;;;;;0.80;0.80;;;;;;;3.18;100.00;98552.50;5052264;28;20205;-65
2023/01/27 07:17:07;;;;;;;0.60;0.60;;;;;;;3.20;100.00;98549.91;5052757;28;20200;-64
2023/01/27 07:19:34;;;;;;;0.50;0.50;;;;;;;3.24;100.00;98548.19;5052776;28;20215;-64
2023/01/27 07:22:01;;;;;;;0.50;0.50;;;;;;;3.27;100.00;98546.44;5047696;28;20192;-64
2023/01/27 07:24:27;;;;;;;0.60;0.60;;;;;;;3.28;100.00;98552.34;5047898;28;20208;-63
2023/01/27 07:26:54;;;;;;;0.40;0.40;;;;;;;3.35;100.00;98553.94;5047251;28;20454;-65
2023/01/27 07:29:22;;;;;;;0.67;0.67;;;;;;;3.48;100.00;98552.91;5047457;28;20205;-64
2023/01/27 07:31:49;;;;;;;0.63;0.63;;;;;;;3.52;100.00;98546.94;5051383;28;20204;-65
2023/01/27 07:34:16;;;;;;;0.63;0.63;;;;;;;3.52;100.00;98552.81;5051818;28;20219;-65
2023/01/27 07:36:42;;;;;;;0.50;0.50;;;;;;;3.52;100.00;98552.00;5050579;28;20200;-65
2023/01/27 07:39:09;;;;;;;0.63;0.63;;;;;;;3.53;100.00;98549.44;5049335;28;20208;-66
2023/01/27 07:41:36;;;;;;;0.67;0.67;;;;;;;3.54;100.00;98550.28;5051103;28;20309;-65
2023/01/27 07:44:03;;;;;;;0.60;0.60;;;;;;;3.49;100.00;98552.06;5050212;28;20206;-66
2023/01/27 07:46:31;;;;;;;0.60;0.60;;;;;;;3.49;100.00;98549.50;5053009;28;20197;-66
2023/01/27 07:48:58;;;;;;;0.63;0.63;;;;;;;3.50;100.00;98553.69;5052812;28;20694;-65
2023/01/27 07:51:25;;;;;;;0.50;0.50;;;;;;;3.48;100.00;98550.38;5052564;28;20201;-65
2023/01/27 07:53:52;;;;;;;0.50;0.50;;;;;;;3.53;100.00;98538.44;5053123;28;20293;-65
2023/01/27 07:56:19;;;;;;;0.60;0.60;;;;;;;3.55;100.00;98536.75;5051465;28;20208;-65
2023/01/27 07:58:46;;;;;;;0.60;0.60;;;;;;;3.62;100.00;98538.28;5051153;28;20696;-65
2023/01/27 08:01:13;;;;;;;0.60;0.60;;;;;;;3.66;100.00;98540.78;5051674;28;20223;-65
2023/01/27 08:03:41;;;;;;;0.50;0.50;;;;;;;3.75;100.00;98536.44;5047207;28;20233;-64
2023/01/27 08:06:10;;;;;;;0.57;0.57;;;;;;;3.78;100.00;98544.78;5047619;28;20204;-65
2023/01/27 08:08:37;;;;;;;0.60;0.60;;;;;;;3.79;100.00;98546.47;5052060;28;20208;-64
2023/01/27 08:11:06;;;;;;;0.53;0.53;;;;;;;3.75;100.00;98554.97;5052807;28;20193;-65
2023/01/27 08:13:33;;;;;;;0.70;0.70;;;;;;;3.69;100.00;98542.41;5051342;28;20212;-65
2023/01/27 08:16:01;;;;;;;0.50;0.50;;;;;;;3.70;100.00;98531.41;5052297;28;20653;-65
2023/01/27 08:18:29;;;;;;;1.13;1.13;;;;;;;3.70;100.00;98541.56;5049964;28;20200;-65
2023/01/27 08:21:00;;;;;;;0.60;0.60;;;;;;;3.72;100.00;98539.81;5051031;28;20678;-65
2023/01/27 08:23:27;;;;;;;0.50;0.50;;;;;;;3.70;100.00;98544.09;5047383;28;20200;-64
2023/01/27 08:25:56;;;;;;;0.53;0.53;;;;;;;3.66;100.00;98539.94;5045459;28;20386;-65
2023/01/27 08:28:24;;;;;;;0.50;0.50;;;;;;;3.70;100.00;98523.81;5046800;28;20254;-66
2023/01/27 08:30:51;;;;;;;0.80;0.80;;;;;;;3.75;100.00;98522.03;5050190;28;20730;-66
2023/01/27 08:33:18;;;;;;;0.57;0.57;;;;;;;3.80;100.00;98517.72;5047944;28;20322;-65
2023/01/27 08:35:45;;;;;;;0.60;0.60;;;;;;;3.85;100.00;98515.94;5049155;28;20310;-65
2023/01/27 08:38:16;;;;;;;0.60;0.60;;;;;;;3.89;100.00;98507.44;5052164;28;20197;-65
2023/01/27 08:40:43;;;;;;;0.70;0.70;;;;;;;3.81;100.00;98483.09;5051765;28;20616;-65
2023/01/27 08:43:12;;;;;;;1.23;1.23;;;;;;;3.86;100.00;98484.66;5052124;28;20205;-65
2023/01/27 08:45:39;;;;;;;0.50;0.50;;;;;;;4.04;100.00;98502.06;5051951;28;20231;-65
2023/01/27 08:48:05;;;;;;;0.60;0.60;;;;;;;4.11;100.00;98496.03;5050631;28;20251;-64
2023/01/27 08:50:33;;;;;;;0.97;0.97;;;;;;;4.13;100.00;98499.38;5048991;28;20599;-65
2023/01/27 08:53:00;;;;;;;0.60;0.60;;;;;;;4.16;100.00;98499.34;5049512;28;20727;-65
2023/01/27 08:55:29;;;;;;;0.60;0.60;;;;;;;4.11;100.00;98503.63;5048577;28;20722;-65
2023/01/27 08:57:56;;;;;;;0.50;0.50;;;;;;;4.00;100.00;98505.56;5047999;28;20227;-65
2023/01/27 09:00:23;;;;;;;0.60;0.60;;;;;;;3.99;100.00;98508.94;5045370;28;20254;-64
2023/01/27 09:02:50;;;;;;;0.83;0.83;;;;;;;3.98;100.00;98509.78;5046778;28;20565;-65
2023/01/27 09:05:18;;;;;;;0.50;0.50;;;;;;;3.93;100.00;98514.13;5052026;28;20753;-64
2023/01/27 09:07:45;;;;;;;0.50;0.50;;;;;;;3.87;100.00;98519.31;5052233;28;20615;-62
2023/01/27 09:10:12;;;;;;;0.63;0.63;;;;;;;3.83;100.00;98509.22;5052190;28;20196;-63
2023/01/27 09:12:40;;;;;;;0.60;0.60;;;;;;;3.77;100.00;98512.72;5051902;28;20213;-63
2023/01/27 09:15:08;;;;;;;2.13;0.80;;;;;;;3.78;100.00;98513.56;5052014;28;20197;-65
2023/01/27 09:17:34;;;;;;;0.50;0.50;;;;;;;3.81;100.00;98519.41;5051717;28;20197;-63
2023/01/27 09:20:01;;;;;;;0.63;0.63;;;;;;;3.57;100.00;98477.56;5051749;28;20664;-63
2023/01/27 09:22:28;;;;;;;0.57;0.57;;;;;;;3.77;100.00;98497.50;5051339;28;20201;-62
2023/01/27 09:24:55;;;;;;;0.50;0.50;;;;;;;3.85;100.00;98510.88;5051608;28;20329;-63
2023/01/27 09:27:21;;;;;;;0.50;0.50;;;;;;;3.80;100.00;98501.69;5051699;28;20201;-63
2023/01/27 09:29:49;;;;;;;0.60;0.60;;;;;;;3.81;100.00;98504.22;5050232;28;20244;-62
2023/01/27 09:32:16;;;;;;;0.60;0.60;;;;;;;3.83;100.00;98494.88;5051576;28;20204;-63
2023/01/27 09:34:43;;;;;;;0.57;0.57;;;;;;;3.87;100.00;98488.03;5047046;28;20641;-63
2023/01/27 09:37:12;;;;;;;0.50;0.50;;;;;;;3.83;100.00;98471.22;5051583;28;20193;-63
2023/01/27 09:39:42;;;;;;;0.50;0.50;;;;;;;3.92;100.00;98473.56;5049361;28;20270;-62
2023/01/27 09:42:41;;;;;;;0.70;0.70;;;;;;;3.94;100.00;98467.59;5049914;28;20193;-63
2023/01/27 09:45:36;;;;;;;0.60;0.60;;;;;;;3.94;100.00;98467.59;5046785;28;20197;-62
2023/01/27 09:48:19;;;;;;;0.53;0.53;;;;;;;3.98;100.00;98464.16;5049852;28;20208;-62
2023/01/27 09:50:47;;;;;;;0.60;0.60;;;;;;;4.03;100.00;98462.38;5050924;28;20201;-62
2023/01/27 09:53:45;;;;;;;0.57;0.57;;;;;;;4.06;100.00;98461.47;5050957;28;20216;-63
2023/01/27 09:56:19;;;;;;;0.50;0.50;;;;;;;4.08;100.00;98449.59;5051084;28;20258;-62
2023/01/27 09:59:10;;;;;;;0.50;0.50;;;;;;;4.11;100.00;98457.97;5048467;28;20193;-62
2023/01/27 10:01:52;;;;;;;1.40;1.20;;;;;;;4.07;100.00;98453.03;5049996;28;20197;-62
2023/01/27 10:04:51;;;;;;;0.50;0.50;;;;;;;4.06;100.00;98459.78;5048062;28;20286;-62
2023/01/27 10:08:01;;;;;;;0.50;0.50;;;;;;;4.07;100.00;98456.38;5046740;28;20204;-62
2023/01/27 10:10:43;;;;;;;0.53;0.53;;;;;;;4.06;100.00;98459.78;5048420;28;20219;-62
2023/01/27 10:13:30;;;;;;;0.50;0.50;;;;;;;4.07;100.00;98453.84;5050257;28;20208;-62
2023/01/27 10:16:20;;;;;;;2.03;1.23;;;;;;;4.06;100.00;98449.66;5044260;28;20266;-62
2023/01/27 10:19:05;;;;;;;0.60;0.60;;;;;;;4.11;100.00;98447.84;5050112;28;20209;-62
2023/01/27 10:21:44;;;;;;;0.50;0.50;;;;;;;4.14;100.00;98437.63;5049917;28;20204;-62
2023/01/27 10:24:21;;;;;;;0.50;0.50;;;;;;;4.16;100.00;98435.94;5049710;28;20211;-62
2023/01/27 10:26:50;;;;;;;0.50;0.50;;;;;;;4.18;100.00;98444.31;5050183;28;20211;-62
2023/01/27 10:29:25;;;;;;;0.60;0.60;;;;;;;4.14;100.00;98445.25;5049684;28;20212;-62
2023/01/27 10:31:56;;;;;;;0.50;0.50;;;;;;;4.19;100.00;98435.84;5049628;28;20214;-62
2023/01/27 10:34:28;;;;;;;0.50;0.50;;;;;;;4.12;100.00;98420.78;5044292;28;20369;-62
2023/01/27 10:37:08;;;;;;;0.70;0.70;;;;;;;4.21;100.00;98423.13;5048117;28;20218;-62
2023/01/27 10:39:45;;;;;;;0.60;0.60;;;;;;;4.27;100.00;98419.63;5047699;28;20200;-62
2023/01/27 10:42:25;;;;;;;0.50;0.50;;;;;;;4.26;100.00;98415.44;5045719;28;20196;-62
2023/01/27 10:45:13;;;;;;;0.70;0.70;;;;;;;4.31;100.00;98413.63;5049287;28;20200;-62
2023/01/27 10:47:53;;;;;;;0.50;0.50;;;;;;;4.30;100.00;98406.91;5042200;28;20298;-63
2023/01/27 10:50:27;;;;;;;0.50;0.50;;;;;;;4.34;100.00;98398.34;5044786;28;20497;-62
2023/01/27 10:53:00;;;;;;;0.53;0.53;;;;;;;4.34;100.00;98395.81;5046952;28;20216;-62
2023/01/27 10:55:36;;;;;;;0.70;0.70;;;;;;;4.33;100.00;98394.97;5046610;28;20208;-61
2023/01/27 10:58:11;;;;;;;0.60;0.60;;;;;;;4.33;100.00;98384.00;5044572;28;20584;-62
2023/01/27 11:00:42;;;;;;;0.90;0.90;;;;;;;4.39;100.00;98386.41;5048740;28;20253;-61
2023/01/27 11:03:13;;;;;;;0.50;0.50;;;;;;;4.40;100.00;98382.97;5048154;28;20784;-61
2023/01/27 11:05:46;;;;;;;0.70;0.70;;;;;;;4.45;100.00;98386.28;5044026;28;20561;-61
2023/01/27 11:08:17;;;;;;;0.50;0.50;;;;;;;4.49;100.00;98380.28;5044670;28;20196;-61
2023/01/27 11:13:30;;;;;;;0.57;0.57;;;;;;;4.54;100.00;98373.38;5045834;28;20636;-61
2023/01/27 11:15:57;;;;;;;0.50;0.50;;;;;;;4.53;100.00;98366.63;5047815;28;20196;-61
2023/01/27 11:18:28;;;;;;;0.60;0.60;;;;;;;4.59;100.00;98363.94;5046353;28;20205;-61
2023/01/27 11:21:01;;;;;;;0.50;0.50;;;;;;;4.69;100.00;98360.31;5044944;28;20228;-61
2023/01/27 11:23:30;;;;;;;0.60;0.60;;;;;;;4.72;100.00;98339.94;5047455;28;20677;-61
2023/01/27 11:26:06;;;;;;;0.50;0.50;;;;;;;4.90;100.00;98348.84;5047010;28;20561;-61
2023/01/27 11:28:40;;;;;;;0.50;0.50;;;;;;;4.97;100.00;98351.22;5048771;28;20219;-62
2023/01/27 11:31:13;;;;;;;0.60;0.60;;;;;;;5.08;100.00;98353.47;5049397;28;20201;-61
2023/01/27 11:33:56;;;;;;;0.60;0.60;;;;;;;5.17;100.00;98359.13;5045617;28;20221;-61
2023/01/27 11:36:25;;;;;;;0.50;0.50;;;;;;;5.21;100.00;98355.66;5048731;28;20204;-62
2023/01/27 11:38:53;;;;;;;0.63;0.63;;;;;;;5.22;100.00;98364.97;5049473;28;20217;-62
2023/01/27 11:41:19;;;;;;;0.57;0.57;;;;;;;5.24;100.00;98360.66;5049507;28;20270;-62
2023/01/27 11:43:46;;;;;;;0.70;0.70;;;;;;;5.25;100.00;98374.19;5049374;28;20201;-62
2023/01/27 11:46:18;;;;;;;0.60;0.60;;;;;;;5.21;100.00;98373.44;5047232;28;20255;-62
2023/01/27 11:48:50;;;;;;;0.40;0.40;;;;;;;5.15;100.00;98368.50;5047622;28;20250;-62
2023/01/27 11:51:20;;;;;;;0.80;0.80;;;;;;;5.11;100.00;98364.38;5048825;28;20657;-62
2023/01/27 11:53:55;;;;;;;0.50;0.50;;;;;;;5.08;100.00;98359.38;5043324;28;20243;-62
2023/01/27 11:56:23;;;;;;;0.60;0.60;;;;;;;5.10;100.00;98355.13;5039305;28;20212;-62
2023/01/27 11:58:58;;;;;;;0.60;0.60;;;;;;;5.10;100.00;98352.56;5039085;28;20213;-61
2023/01/27 12:01:38;;;;;;;0.57;0.57;;;;;;;5.09;100.00;98350.06;5040827;28;20581;-62
2023/01/27 12:04:11;;;;;;;0.73;0.73;;;;;;;5.04;100.00;98357.78;5041078;28;20665;-62
2023/01/27 12:06:43;;;;;;;0.70;0.70;;;;;;;5.07;100.00;98354.34;5046363;28;20208;-62
2023/01/27 12:09:31;;;;;;;0.60;0.60;;;;;;;5.08;100.00;98359.38;5048405;28;20687;-63
2023/01/27 12:12:11;;;;;;;0.50;0.50;;;;;;;5.06;100.00;98356.06;5047672;28;20684;-62
2023/01/27 12:14:38;;;;;;;0.50;0.50;;;;;;;5.00;100.00;98351.13;5045856;28;20255;-63
2023/01/27 12:17:08;;;;;;;1.37;1.37;;;;;;;5.04;100.00;98350.16;5044796;28;20201;-63
2023/01/27 12:19:40;;;;;;;0.50;0.50;;;;;;;5.02;100.00;98346.00;5044141;28;20197;-63